Dakin Peak, Santa Catalina Island Weather observations

Data are for 10 minute period ending at time listed.
 Day   Time   Solar   Ave.   Ave.  Ave.  Vector    Max.   Stn.    Total
  of    of     Rad.   Air    Rel.  Wind   Wind     Wind   Baro.  Precip.
Year   Day            Temp.  Hum.  Speed  Dir.     Gust   Pres.         
2014   (PST)   W/m2    F      %     mph   deg.      mph    mb.     in.  
------------------------------------------------------------------------
 107    8:20  100.0    56   88.5     8    111.5    12.5    999.0   0.00  
 107    8:30   74.0    55   90.0     9    107.8    14.9    999.0   0.00  
 107    8:40   79.0    55   91.1     9    109.1    14.9    999.0   0.00  
 107    8:50  102.0    55   91.6    10    110.0    14.9    999.0   0.00  
 107    9:00  148.0    55   91.3     9    110.6    16.1    999.0   0.00  
 107    9:10  168.0    55   89.7    10    111.5    14.9    999.0   0.00  
 107    9:20  176.0    56   88.7     9    108.8    15.5    999.0   0.00  
 107    9:30  194.0    56   87.4     8    106.5    12.5    999.0   0.00  
 107    9:40  386.0    58   84.1    10    108.7    14.3    999.0   0.00  
 107    9:50  325.0    58   83.1    10    108.9    13.1    999.0   0.00  
 107   10:00  267.0    58   82.6     8    110.1    11.3    999.0   0.00  
 107   10:10  311.0    59   81.5     8    109.8    13.7    999.0   0.00  
 107   10:20  271.0    59   81.2     8    106.9    11.3    999.0   0.00  
 107   10:30  382.0    59   80.5     8    106.1    12.5    999.0   0.00  
 107   10:40  387.0    59   80.4     7     99.0    10.8    999.0   0.00  
 107   10:50  408.0    60   77.7     7    130.9    12.5    999.0   0.00  
 107   11:00  504.0    59   80.2     7    130.0    13.1    999.0   0.00  
 107   11:10  475.0    60   77.9     7    135.4    11.9    999.0   0.00  
 107   11:20  559.0    60   78.8     6    143.2    10.2    999.0   0.00  
 107   11:30  321.0    60   76.5     5    147.2     9.6    999.0   0.00  
 107   11:40  360.0    59   79.8     7    106.6    12.5    999.0   0.00  
 107   11:50  616.0    61   77.4     6    155.3    10.2    999.0   0.00  
 107   12:00  398.0    62   74.3     5    146.1     7.8    999.0   0.00  
 107   12:10  309.0    59   79.9     6    167.6    10.2    999.0   0.00  
 107   12:20  374.0    58   82.1     5    163.6    10.8    999.0   0.00  
 107   12:30  593.0    61   76.6     4    149.7     9.6    999.0   0.00  
 107   12:40  799.0    65   70.2     5    140.1    10.2    999.0   0.00  
 107   12:50  640.0    63   72.6     7    110.8    11.3    999.0   0.00  
 107   13:00  443.0    63   71.8     7    115.9    12.5    999.0   0.00  
 107   13:10  816.0    64   70.8     5    144.6    10.2    999.0   0.00  
 107   13:20  712.0    67   64.8     5    119.4     9.6    999.0   0.00  
 107   13:30  677.0    66   66.1     5    119.2     7.8    999.0   0.00  
 107   13:40  550.0    64   70.4     6    161.5    10.2    999.0   0.00  
 107   13:50  365.0    61   74.8     5    169.9     9.0    999.0   0.00  
 107   14:00  410.0    62   73.7     4    154.8     7.8    999.0   0.00  
 107   14:10  421.0    62   72.9     5    162.9     8.4    999.0   0.00  
 107   14:20  377.0    60   76.4     7    169.8    14.3    999.0   0.00  
 107   14:30  285.0    57   84.3     9    175.3    14.9    999.0   0.00  
 107   14:40  367.0    57   83.4     7    205.9    12.5    999.0   0.00  
 107   14:50  286.0    57   83.4     7    192.3    11.9    999.0   0.00  
 107   15:00  248.0    56   84.9     6    179.3    11.3    999.0   0.00  
 107   15:10  353.0    58   82.3     3    181.9     6.0    999.0   0.00  
 107   15:20  508.0    63   73.7     4    118.3     7.2    999.0   0.00  
 107   15:30  289.0    62   73.3     3    134.6     6.0    999.0   0.00  
 107   15:40  225.0    60   77.5     6    143.4    10.2    999.0   0.00  
 107   15:50  206.0    57   84.1     8    249.8    14.3    999.0   0.00  
 107   16:00  219.0    58   82.5     4    189.5    10.8    999.0   0.00  
 107   16:10  188.0    57   84.8     7    209.6    11.3    999.0   0.00  
 107   16:20  185.0    56   86.8     7    225.6    11.3    999.0   0.00  
 107   16:30  182.0    57   86.3     4    242.3    10.2    999.0   0.00  
 107   16:40  167.0    57   85.1     6    198.3    10.8    999.0   0.00  
 107   16:50  120.0    56   86.6     6    196.1    11.3    999.0   0.00  
 107   17:00   99.0    55   87.7     7    195.2    10.8    999.0   0.00  
 107   17:10   73.0    55   88.8     6    210.8    11.9    999.0   0.00  
 107   17:20   63.0    54   89.4     6    226.8    10.2    999.0   0.00  
 107   17:30   59.0    54   90.0     6    204.9     9.6    999.0   0.00  
 107   17:40   40.0    54   89.8     6    201.2     9.6    999.0   0.00  
 107   17:50   20.0    54   90.0     6    190.9    10.8    999.0   0.00  
 107   18:00   12.0    54   90.3     4    214.3     6.6    999.0   0.00  
 107   18:10    8.0    54   90.5     4    213.6     6.0    999.0   0.00  
 107   18:20    5.0    54   90.7     5    210.0    10.2    999.0   0.00  
 107   18:30    1.0    54   91.0     4    210.0     6.6    999.0   0.00  
 107   18:40    0.0    54   90.9     4    149.1     7.2    999.0   0.00  
 107   18:50    0.0    54   90.5     6    109.9    11.3    999.0   0.00  
 107   19:00    0.0    54   90.4     5    166.6     8.4    999.0   0.00  
 107   19:10    0.0    54   90.4     5    169.4     7.8    999.0   0.00  
 107   19:20    0.0    54   90.3     6    126.0     9.0    999.0   0.00  
 107   19:30    0.0    54   90.6     4    182.0     9.0    999.0   0.00  
 107   19:40    0.0    54   90.8     4    169.0     6.0    999.0   0.00  
 107   19:50    0.0    54   90.9     4    167.2     6.6    999.0   0.00  
 107   20:00    0.0    54   91.4     4    199.1     7.8    999.0   0.00  
 107   20:10    0.0    54   92.1     3    166.1     7.8    999.0   0.00  
 107   20:20    0.0    54   92.4     3    187.6     6.6    999.0   0.00  
 107   20:30    0.0    54   92.4     6    237.1    11.9    999.0   0.00  
 107   20:40    0.0    54   93.0     4    126.7     7.2    999.0   0.00  
 107   20:50    0.0    54   92.8     4    116.5     7.2    999.0   0.00  
 107   21:00    0.0    54   92.7     4    108.9     6.6    999.0   0.00  
 107   21:10    0.0    54   92.8     5    123.0     7.8    999.0   0.00  
 107   21:20    0.0    53   92.8     4    255.2     7.2    999.0   0.00  
 107   21:30    0.0    53   92.7     3     97.5     7.2    999.0   0.00  
 107   21:40    0.0    53   92.2     6     98.6     8.4    999.0   0.00  
 107   21:50    0.0    54   92.2     6    100.7     7.8    999.0   0.00  
 107   22:00    0.0    54   92.1     5    111.2     9.0    999.0   0.00  
 107   22:10    0.0    53   92.2     5    116.6     6.6    999.0   0.00  
 107   22:20    0.0    53   92.3     4    122.0     6.0    999.0   0.00  
 107   22:30    0.0    53   92.2     4    116.6     6.6    999.0   0.00  
 107   22:40    0.0    53   91.9     4    108.4     6.0    999.0   0.00  
 107   22:50    0.0    53   92.0     7     91.7    11.9    999.0   0.00  
 107   23:00    0.0    53   92.4     7    102.2    10.2    999.0   0.00  
 107   23:10    0.0    54   92.4     6    108.7     9.0    999.0   0.00  
 107   23:20    0.0    54   92.6     6    116.4    10.8    999.0   0.00  
 107   23:30    0.0    53   92.7     6    117.1     9.6    999.0   0.00  
 107   23:40    0.0    53   92.6     8    115.4    12.5    999.0   0.00  
 107   23:50    0.0    53   91.8     7    111.8    10.8    999.0   0.00  
 108    0:00    0.0    53   91.4     8    111.1    12.5    999.0   0.00  
 108    0:10    0.0    53   91.5     8    109.7    10.8    999.0   0.00  
 108    0:20    0.0    53   91.8     7    103.1     9.6    999.0   0.00  
 108    0:30    0.0    53   92.2     6    102.6     9.6    999.0   0.00  
 108    0:40    0.0    53   92.4     7    110.5    10.2    999.0   0.00  
 108    0:50    0.0    54   92.9     7    103.3    10.2    999.0   0.00  
 108    1:00    0.0    54   93.3     6    110.4     9.6    999.0   0.00  
 108    1:10    0.0    54   93.6     6    105.2     9.6    999.0   0.00  
 108    1:20    1.0    54   93.8     6    108.6     8.4    999.0   0.00  
 108    1:30    1.0    54   94.0     6    113.7     7.8    999.0   0.00  
 108    1:40    1.0    54   94.2     6    116.7     9.6    999.0   0.00  
 108    1:50    1.0    53   94.3     7    113.1    10.8    999.0   0.00  
 108    2:00    1.0    53   94.4     9    111.7    11.3    999.0   0.00  
 108    2:10    0.0    53   94.1     9    112.5    14.9    999.0   0.00  
 108    2:20    1.0    53   94.0     7    114.0    10.8    999.0   0.00  
 108    2:30    0.0    54   93.9     6    112.9    10.2    999.0   0.00  
 108    2:40    0.0    54   93.9     8    111.7    11.9    999.0   0.00  
 108    2:50    1.0    54   93.9     7    110.1    13.1    999.0   0.00  
 108    3:00    1.0    54   94.0     8    109.9    13.7    999.0   0.00  
 108    3:10    1.0    54   94.1     8    108.5    11.9    999.0   0.00  
 108    3:20    1.0    54   94.1    10    112.7    16.1    999.0   0.00  
 108    3:30    0.0    53   93.7    10    129.5    14.9    999.0   0.00  
 108    3:40    0.0    54   93.0     9    121.3    15.5    999.0   0.00  
 108    3:50    0.0    54   92.9     9    114.1    12.5    999.0   0.00  
 108    4:00    0.0    54   93.2     8    121.5    14.3    999.0   0.00  
 108    4:10    0.0    54   93.5     7    114.0    12.5    999.0   0.00  
 108    4:20    0.0    54   93.7     6    111.7    10.8    999.0   0.00  
 108    4:30    0.0    54   93.8     4    101.9     7.8    999.0   0.00  
 108    4:40    0.0    54   93.8     3    114.9     5.4    999.0   0.00  
 108    4:50    0.0    54   93.8     4    123.0     7.2    999.0   0.00  
 108    5:00    0.0    54   93.9     6    141.9    10.2    999.0   0.00  
 108    5:10    0.0    54   93.9     6    147.7     8.4    999.0   0.00  
 108    5:20    2.0    54   94.0     5    158.1     7.8    999.0   0.00  
 108    5:30    3.0    54   93.8     4    160.6     8.4    999.0   0.00  
 108    5:40    3.0    54   93.9     4    136.1     6.6    999.0   0.00  
 108    5:50    6.0    54   94.2     5    168.9     8.4    999.0   0.00  
 108    6:00    6.0    54   94.4     4    163.8     6.6    999.0   0.00  
 108    6:10    8.0    54   94.5     4    145.5     6.6    999.0   0.00  
 108    6:20   11.0    54   94.7     3    194.9     5.4    999.0   0.00  
 108    6:30   11.0    54   94.8     2    229.0     4.8    999.0   0.00  
 108    6:40   14.0    54   95.0     3    158.3     6.0    999.0   0.00  
 108    6:50   17.0    54   95.0     3    145.0     5.4    999.0   0.00  
 108    7:00   20.0    53   94.9     3    184.8     5.4    999.0   0.00  
 108    7:10   28.0    54   94.7     4    195.4     6.0    999.0   0.00  
 108    7:20   35.0    54   94.7     5    230.7     9.6    999.0   0.00  
 108    7:30   37.0    54   95.0     3    217.6     6.6    999.0   0.00  
 108    7:40   22.0    54   95.2     2     98.3     3.0    999.0   0.00  
 108    7:50   33.0    54   95.2     2    106.2     3.6    999.0   0.01  
 108    8:00   61.0    54   95.3     1    130.4     2.4    999.0   0.00  
 108    8:10   89.0    54   95.3     2    108.2     4.2    999.0   0.00  

Return to Dakin Peak graphs page.


Western Regional Climate Center,wrcc@dri.edu